Change the Weather History Date:

Sunday, December 22, 2013

  Actual Average (KHDO) Record (KHDO)
Temperature  
Mean Temperature 42 °F -  
Max Temperature 52 °F 59 °F 75 °F (1996)
Min Temperature 33 °F 34 °F 28 °F (1998)
Degree Days  
Heating Degree Days 22    
Moisture  
Dew Point 34 °F    
Average Humidity 75    
Maximum Humidity 94    
Minimum Humidity 49    
Precipitation  
Precipitation 0.00 in - - ()
Sea Level Pressure  
Sea Level Pressure 30.11 in    
Wind  
Wind Speed 5 mph (NNW)    
Max Wind Speed 16 mph    
Max Gust Speed 22 mph    
Visibility 10 miles    
Events      
Averages and records for this station are not official NWS values.
T = Trace of Precipitation, MM = Missing Value Source: NWS Daily Summary

Daily Weather History Graph

Daily Weather History Graph

Search for Another Location

Airport or City:

Trip Planner

Search our weather history database for the weather conditions in past years. The results will help you decide how hot, cold, wet, or windy it might be!

Date:

Astronomy

Dec. 22, 2013 Rise Set
Actual Time 7:28 AM CST 5:41 PM CST
Civil Twilight 7:02 AM CST 6:08 PM CST
Nautical Twilight 6:32 AM CST 6:37 PM CST
Astronomical Twilight 6:03 AM CST 7:07 PM CST
Moon 10:35 PM CST (12/22) 10:44 AM CST (12/22)
Length of Visible Light 11h 05m
Length of Day
10h 13m
Waning Gibbous, 76% of the Moon is Illuminated
Dec 22
Waning Gibbous
Dec 25
Last Quarter
Jan 1
New
Jan 7
First Quarter
Jan 15
Full

Hourly Weather History & Observations

Time (CST) Temp. Windchill Dew Point Humidity Pressure Visibility Wind Dir Wind Speed Gust Speed Precip Events Conditions
12:15 AM 41.0 °F - 35.4 °F 81% 29.86 in 10.0 mi Calm Calm - N/A   Clear
12:35 AM 41.0 °F - 36.0 °F 82% 29.86 in 10.0 mi Calm Calm - N/A   Clear
12:55 AM 38.5 °F 36.1 °F 35.2 °F 88% 29.86 in 10.0 mi NW 3.5 mph - N/A   Clear
1:15 AM 38.5 °F - 35.1 °F 87% 29.86 in 10.0 mi Calm Calm - N/A   Clear
1:35 AM 38.5 °F - 35.6 °F 89% 29.87 in 10.0 mi Calm Calm - N/A   Clear
1:55 AM 37.6 °F - 34.3 °F 88% 29.87 in 10.0 mi Calm Calm - N/A   Clear
2:15 AM 37.4 °F - 34.7 °F 90% 29.88 in 10.0 mi Calm Calm - N/A   Clear
2:35 AM 38.5 °F - 35.6 °F 89% 29.90 in 10.0 mi Calm Calm - N/A   Clear
2:55 AM 38.5 °F - 35.6 °F 89% 29.90 in 10.0 mi Calm Calm - N/A   Clear
3:15 AM 36.1 °F 33.5 °F 33.6 °F 91% 29.91 in 10.0 mi NNW 3.5 mph - N/A   Clear
3:35 AM 36.1 °F 33.5 °F 33.4 °F 90% 29.91 in 10.0 mi NNW 3.5 mph - N/A   Clear
3:55 AM 36.0 °F 33.3 °F 34.0 °F 93% 29.92 in 10.0 mi NW 3.5 mph - N/A   Clear
4:15 AM 36.3 °F 32.5 °F 34.0 °F 91% 29.92 in 10.0 mi NW 4.6 mph - N/A   Clear
4:35 AM 37.4 °F 32.1 °F 34.7 °F 90% 29.92 in 10.0 mi WNW 6.9 mph - N/A   Clear
4:55 AM 36.5 °F 31.8 °F 34.2 °F 91% 29.92 in 10.0 mi WNW 5.8 mph - N/A   Clear
5:15 AM 36.0 °F - 33.6 °F 91% 29.94 in 10.0 mi Calm Calm - N/A   Clear
5:35 AM 36.0 °F - 33.8 °F 92% 29.94 in 10.0 mi Calm Calm - N/A   Clear
5:55 AM 36.0 °F - 33.4 °F 91% 29.95 in 10.0 mi Calm Calm - N/A   Clear
6:15 AM 33.4 °F 29.1 °F 32.0 °F 94% 29.96 in 10.0 mi NNW 4.6 mph - N/A   Clear
6:35 AM 36.0 °F - 34.0 °F 93% 29.97 in 10.0 mi Calm Calm - N/A   Clear
6:55 AM 36.0 °F 33.3 °F 34.0 °F 93% 29.98 in 10.0 mi WNW 3.5 mph - N/A   Clear
7:15 AM 33.6 °F - 32.0 °F 94% 29.99 in 10.0 mi Calm Calm - N/A   Clear
7:35 AM 33.4 °F 29.1 °F 32.0 °F 94% 30.00 in 10.0 mi WNW 4.6 mph - N/A   Clear
7:55 AM 36.0 °F 33.3 °F 34.2 °F 93% 30.01 in 10.0 mi NW 3.5 mph - N/A   Clear
8:15 AM 36.0 °F 31.1 °F 34.2 °F 93% 30.03 in 10.0 mi WNW 5.8 mph - N/A   Clear
8:35 AM 38.7 °F 35.2 °F 36.1 °F 91% 30.04 in 10.0 mi WNW 4.6 mph - N/A   Clear
8:55 AM 43.2 °F 41.5 °F 37.8 °F 81% 30.06 in 10.0 mi WNW 3.5 mph - N/A   Clear
9:15 AM 47.3 °F - 39.4 °F 74% 30.08 in 10.0 mi NW 8.1 mph - N/A   Clear
9:35 AM 49.1 °F - 38.1 °F 66% 30.09 in 10.0 mi North 8.1 mph 16.1 mph N/A   Clear
9:55 AM 48.0 °F - 38.7 °F 70% 30.10 in 10.0 mi North 10.4 mph - N/A   Clear
10:15 AM 46.4 °F 41.9 °F 38.7 °F 74% 30.12 in 10.0 mi North 9.2 mph - N/A   Clear
10:35 AM 48.2 °F - 40.3 °F 74% 30.13 in 10.0 mi North 10.4 mph - N/A   Clear
10:55 AM 48.6 °F - 40.1 °F 73% 30.15 in 10.0 mi NNW 10.4 mph - N/A   Clear
11:15 AM 48.6 °F - 39.0 °F 70% 30.15 in 10.0 mi NW 16.1 mph - N/A   Scattered Clouds
11:35 AM 46.2 °F 39.5 °F 38.3 °F 74% 30.16 in 10.0 mi North 16.1 mph 21.9 mph N/A   Clear
11:55 AM 46.6 °F - 38.7 °F 74% 30.16 in 10.0 mi NNW 16.1 mph - N/A   Clear
12:15 PM 48.0 °F - 39.0 °F 71% 30.16 in 10.0 mi NNW 16.1 mph 21.9 mph N/A   Scattered Clouds
12:35 PM 48.4 °F - 39.0 °F 70% 30.14 in 10.0 mi NNW 13.8 mph 18.4 mph N/A   Scattered Clouds
12:55 PM 48.7 °F - 38.3 °F 67% 30.14 in 10.0 mi NNW 15.0 mph - N/A   Scattered Clouds
1:15 PM 48.6 °F - 38.1 °F 67% 30.14 in 10.0 mi NW 13.8 mph - N/A   Scattered Clouds
1:35 PM 49.6 °F - 38.1 °F 65% 30.13 in 10.0 mi WNW 12.7 mph 19.6 mph N/A   Scattered Clouds
1:55 PM 51.1 °F - 39.7 °F 65% 30.13 in 10.0 mi North 10.4 mph 21.9 mph N/A   Scattered Clouds
2:15 PM 51.1 °F - 39.2 °F 64% 30.13 in 10.0 mi North 15.0 mph - N/A   Clear
2:35 PM 51.1 °F - 37.6 °F 60% 30.14 in 10.0 mi NNW 15.0 mph 19.6 mph N/A   Clear
2:55 PM 51.3 °F - 36.7 °F 57% 30.15 in 10.0 mi NW 13.8 mph 18.4 mph N/A   Clear
3:15 PM 52.0 °F - 36.1 °F 55% 30.15 in 10.0 mi NNW 11.5 mph 17.3 mph N/A   Clear
3:35 PM 52.3 °F - 34.9 °F 51% 30.16 in 10.0 mi NNW 15.0 mph 20.7 mph N/A   Clear
3:55 PM 51.1 °F - 32.5 °F 49% 30.17 in 10.0 mi NNW 15.0 mph 19.6 mph N/A   Clear
4:15 PM 51.1 °F - 32.5 °F 49% 30.17 in 10.0 mi NNW 13.8 mph - N/A   Clear
4:35 PM 51.1 °F - 33.1 °F 50% 30.18 in 10.0 mi NNW 13.8 mph - N/A   Clear
4:55 PM 48.6 °F - 31.6 °F 52% 30.20 in 10.0 mi NNW 13.8 mph - N/A   Clear
5:15 PM 47.8 °F - 31.6 °F 53% 30.21 in 10.0 mi NNW 13.8 mph - N/A   Clear
5:35 PM 45.9 °F 40.4 °F 30.9 °F 56% 30.21 in 10.0 mi NNW 11.5 mph - N/A   Clear
5:55 PM 44.6 °F 39.2 °F 30.7 °F 58% 30.22 in 10.0 mi NNW 10.4 mph - N/A   Clear
6:15 PM 43.7 °F 37.3 °F 30.7 °F 60% 30.23 in 10.0 mi NNW 12.7 mph - N/A   Clear
6:35 PM 43.3 °F 37.7 °F 30.9 °F 62% 30.23 in 10.0 mi NNW 10.4 mph - N/A   Clear
6:55 PM 42.3 °F 37.3 °F 30.9 °F 64% 30.24 in 10.0 mi NNW 8.1 mph - N/A   Clear
7:15 PM 41.0 °F 35.8 °F 30.2 °F 65% 30.25 in 10.0 mi NNW 8.1 mph - N/A   Clear
7:35 PM 41.0 °F 37.1 °F 30.2 °F 65% 30.25 in 10.0 mi NNW 5.8 mph - N/A   Clear
7:55 PM 39.7 °F 36.5 °F 30.0 °F 68% 30.26 in 10.0 mi NW 4.6 mph - N/A   Clear
8:15 PM 38.8 °F 35.4 °F 29.3 °F 69% 30.27 in 10.0 mi NNW 4.6 mph - N/A   Clear
8:35 PM 38.5 °F 35.0 °F 30.2 °F 72% 30.28 in 10.0 mi NNW 4.6 mph - N/A   Clear
8:55 PM 38.5 °F 36.1 °F 29.3 °F 70% 30.29 in 10.0 mi NNW 3.5 mph - N/A   Clear
9:15 PM 36.5 °F 31.8 °F 28.8 °F 74% 30.30 in 10.0 mi North 5.8 mph - N/A   Clear
9:35 PM 36.1 °F 30.6 °F 28.4 °F 73% 30.30 in 10.0 mi North 6.9 mph - N/A   Clear
9:55 PM 37.4 °F 32.8 °F 28.2 °F 69% 30.32 in 10.0 mi NNW 5.8 mph - N/A   Clear
10:15 PM 36.3 °F - 27.5 °F 70% 30.33 in 10.0 mi Calm Calm - N/A   Clear
10:35 PM 36.3 °F - 27.1 °F 69% 30.34 in 10.0 mi Calm Calm - N/A   Clear
10:55 PM 36.0 °F 32.1 °F 27.5 °F 71% 30.34 in 10.0 mi North 4.6 mph - N/A   Clear
11:15 PM 36.0 °F 33.3 °F 27.1 °F 70% 30.35 in 10.0 mi NNW 3.5 mph - N/A   Clear
11:35 PM 36.0 °F 32.1 °F 28.0 °F 73% 30.35 in 10.0 mi NW 4.6 mph - N/A   Clear
11:55 PM 33.4 °F 29.1 °F 26.8 °F 77% 30.36 in 10.0 mi NW 4.6 mph - N/A   Clear